createdAt,value
2022-08-17T00:00:43.368Z,39.44
2022-08-17T00:03:15.320Z,39.11
2022-08-17T00:06:00.643Z,39.63
2022-08-17T00:08:32.923Z,39.41
2022-08-17T00:11:02.179Z,39.60
2022-08-17T00:13:46.912Z,39.55
2022-08-17T00:16:56.592Z,39.83
2022-08-17T00:19:15.559Z,39.85
2022-08-17T00:22:32.942Z,40.21
2022-08-17T00:24:35.201Z,40.21
2022-08-17T00:27:03.764Z,40.08
2022-08-17T00:29:31.741Z,40.13
2022-08-17T00:32:01.223Z,40.15
2022-08-17T00:34:49.010Z,40.06
2022-08-17T00:37:16.811Z,40.13
2022-08-17T00:39:44.770Z,40.21
2022-08-17T00:42:16.378Z,40.61
2022-08-17T00:44:44.671Z,40.83
2022-08-17T00:47:12.615Z,40.87
2022-08-17T00:49:40.480Z,40.95
2022-08-17T00:52:16.703Z,40.85
2022-08-17T00:54:49.567Z,40.88
2022-08-17T00:57:30.073Z,41.06
2022-08-17T01:00:29.480Z,41.12
2022-08-17T01:03:08.480Z,41.57
2022-08-17T01:05:42.530Z,41.56
2022-08-17T01:08:17.156Z,41.73
2022-08-17T01:10:59.652Z,41.55
2022-08-17T01:13:41.369Z,41.75
2022-08-17T01:16:26.668Z,41.60
2022-08-17T01:19:02.603Z,41.81
2022-08-17T01:21:48.873Z,41.76
2022-08-17T01:24:17.642Z,41.98
2022-08-17T01:26:47.231Z,42.02
2022-08-17T01:29:17.384Z,42.22
2022-08-17T01:31:53.464Z,42.15
2022-08-17T01:34:22.129Z,42.10
2022-08-17T01:36:50.903Z,42.03
2022-08-17T01:39:41.062Z,42.24
2022-08-17T01:42:57.592Z,42.25
2022-08-17T01:45:32.086Z,42.18
2022-08-17T01:48:01.223Z,42.80
2022-08-17T01:50:35.616Z,42.63
2022-08-17T01:53:08.068Z,42.46
2022-08-17T01:55:53.256Z,42.26
2022-08-17T01:58:21.911Z,42.72
2022-08-17T02:01:00.947Z,42.97
2022-08-17T02:03:31.035Z,42.77
2022-08-17T02:05:58.909Z,42.82
2022-08-17T02:08:32.548Z,42.87
2022-08-17T02:11:14.683Z,42.86
2022-08-17T02:13:44.948Z,43.11
2022-08-17T02:16:13.646Z,42.81
2022-08-17T02:18:41.764Z,42.91
2022-08-17T02:21:10.792Z,43.51
2022-08-17T02:23:46.002Z,43.25
2022-08-17T02:26:25.901Z,43.38
2022-08-17T02:28:54.895Z,43.60
2022-08-17T02:31:22.714Z,43.55
2022-08-17T02:34:03.529Z,43.52
2022-08-17T02:36:34.193Z,43.36
2022-08-17T02:39:08.649Z,43.37
2022-08-17T02:41:38.157Z,43.24
2022-08-17T02:44:07.484Z,43.12
2022-08-17T02:46:35.345Z,43.25
2022-08-17T02:49:04.803Z,43.29
2022-08-17T02:51:32.901Z,43.28
2022-08-17T02:54:02.830Z,43.48
2022-08-17T02:56:48.455Z,43.24
2022-08-17T02:59:16.235Z,43.67
2022-08-17T03:01:44.080Z,43.64
2022-08-17T03:04:12.005Z,43.88
2022-08-17T03:06:39.785Z,43.89
2022-08-17T03:09:07.893Z,43.82
2022-08-17T03:11:35.663Z,43.63
2022-08-17T03:14:03.583Z,43.55
2022-08-17T03:16:31.347Z,43.32
2022-08-17T03:18:59.217Z,43.07
2022-08-17T03:21:27.081Z,43.21
2022-08-17T03:23:55.183Z,43.21
2022-08-17T03:26:23.071Z,43.10
2022-08-17T03:28:50.977Z,43.22
2022-08-17T03:31:18.875Z,43.41
2022-08-17T03:33:46.632Z,43.48
2022-08-17T03:36:14.553Z,43.59
2022-08-17T03:38:42.426Z,43.59
2022-08-17T03:41:13.990Z,43.47
2022-08-17T03:43:41.880Z,43.17
2022-08-17T03:46:34.398Z,43.32
2022-08-17T03:49:25.815Z,43.05
2022-08-17T03:52:13.705Z,43.17
2022-08-17T03:55:01.561Z,43.17
2022-08-17T03:57:30.877Z,42.88
2022-08-17T03:59:59.867Z,42.60
2022-08-17T04:02:33.890Z,42.46
2022-08-17T04:05:02.082Z,42.23
2022-08-17T04:07:31.708Z,41.95
2022-08-17T04:09:59.866Z,42.06
2022-08-17T04:12:31.168Z,42.75
2022-08-17T04:14:59.340Z,42.92
2022-08-17T04:17:29.281Z,43.25
2022-08-17T04:19:57.552Z,43.57
2022-08-17T04:22:30.385Z,43.17
2022-08-17T04:25:17.316Z,43.09
2022-08-17T04:27:45.112Z,43.03
2022-08-17T04:30:13.767Z,43.28
2022-08-17T04:33:19.362Z,43.20
2022-08-17T04:35:51.982Z,42.96
2022-08-17T04:38:24.568Z,43.20
2022-08-17T04:41:11.706Z,43.23
2022-08-17T04:43:41.244Z,43.51
2022-08-17T04:46:20.487Z,43.50
2022-08-17T04:48:52.268Z,43.28
2022-08-17T04:51:34.070Z,43.45
2022-08-17T04:54:07.832Z,43.09
2022-08-17T04:56:36.154Z,43.43
2022-08-17T04:59:09.050Z,43.50
2022-08-17T05:01:40.330Z,43.49
2022-08-17T05:04:32.866Z,43.30
2022-08-17T05:07:01.271Z,42.98
2022-08-17T05:09:29.226Z,43.21
2022-08-17T05:12:04.094Z,43.15
2022-08-17T05:14:32.966Z,43.07
2022-08-17T05:17:09.383Z,42.70
2022-08-17T05:19:39.129Z,42.69
2022-08-17T05:22:07.117Z,42.83
2022-08-17T05:24:40.696Z,42.35
2022-08-17T05:27:19.116Z,42.35
2022-08-17T05:29:47.160Z,42.00
2022-08-17T05:32:39.054Z,43.33
2022-08-17T05:35:03.719Z,43.88
2022-08-17T05:37:31.664Z,44.06
2022-08-17T05:39:59.571Z,43.69
2022-08-17T05:42:27.525Z,43.88
2022-08-17T05:44:58.240Z,43.81
2022-08-17T05:47:27.234Z,43.75
2022-08-17T05:49:55.652Z,43.67
2022-08-17T05:52:50.316Z,43.59
2022-08-17T05:55:46.264Z,43.76
2022-08-17T05:58:39.228Z,43.36
2022-08-17T06:01:25.149Z,43.01
2022-08-17T06:04:31.291Z,42.90
2022-08-17T06:07:38.506Z,42.76
2022-08-17T06:10:46.541Z,42.74
2022-08-17T06:13:36.596Z,42.70
2022-08-17T06:16:33.656Z,42.90
2022-08-17T06:19:31.464Z,42.79
2022-08-17T06:22:02.697Z,42.78
2022-08-17T06:24:42.340Z,42.93
2022-08-17T06:27:31.477Z,43.17
2022-08-17T06:30:20.349Z,43.34
2022-08-17T06:32:51.587Z,43.76
2022-08-17T06:35:37.480Z,43.35
2022-08-17T06:38:41.237Z,43.15
2022-08-17T06:41:26.848Z,42.93
2022-08-17T06:44:49.775Z,42.66
2022-08-17T06:47:36.320Z,42.29
2022-08-17T06:50:29.002Z,41.97
2022-08-17T06:53:21.269Z,41.92
2022-08-17T06:56:08.799Z,41.64
2022-08-17T06:58:40.204Z,41.54
2022-08-17T07:01:17.958Z,41.92
2022-08-17T07:03:54.803Z,41.51
2022-08-17T07:06:29.503Z,41.50
2022-08-17T07:09:14.577Z,41.50
2022-08-17T07:11:58.617Z,42.06
2022-08-17T07:15:07.549Z,41.36
2022-08-17T07:17:46.894Z,41.05
2022-08-17T07:20:23.437Z,40.80
2022-08-17T07:23:17.451Z,40.79
2022-08-17T07:25:45.242Z,40.56
2022-08-17T07:28:13.069Z,40.99
2022-08-17T07:31:01.111Z,40.78
2022-08-17T07:33:32.197Z,40.59
2022-08-17T07:36:00.357Z,40.49
2022-08-17T07:38:32.075Z,40.33
2022-08-17T07:41:08.546Z,40.58
2022-08-17T07:43:48.005Z,40.68
2022-08-17T07:46:52.783Z,40.40
2022-08-17T07:49:37.237Z,40.39
2022-08-17T07:52:50.484Z,39.67
2022-08-17T07:55:41.868Z,39.50
2022-08-17T07:58:18.755Z,39.30
2022-08-17T08:01:04.499Z,38.40
2022-08-17T08:03:34.160Z,38.49
2022-08-17T08:06:03.400Z,38.16
2022-08-17T08:08:42.723Z,37.96
2022-08-17T08:11:17.815Z,38.58
2022-08-17T08:13:46.167Z,38.05
2022-08-17T08:16:13.952Z,37.73
2022-08-17T08:18:55.715Z,37.91
2022-08-17T08:21:55.219Z,38.22
2022-08-17T08:24:59.444Z,38.09
2022-08-17T08:27:48.728Z,37.75
2022-08-17T08:30:22.430Z,37.59
2022-08-17T08:33:44.419Z,37.87
2022-08-17T08:37:15.845Z,38.19
2022-08-17T08:40:11.073Z,38.53
2022-08-17T08:43:08.504Z,38.62
2022-08-17T08:46:10.378Z,38.30
2022-08-17T08:48:58.600Z,38.25
2022-08-17T08:51:48.158Z,38.42
2022-08-17T08:54:27.335Z,38.61
2022-08-17T08:57:26.844Z,38.44
2022-08-17T09:00:17.352Z,38.71
2022-08-17T09:03:28.094Z,38.77
2022-08-17T09:06:40.095Z,38.47
2022-08-17T09:09:34.715Z,38.33
2022-08-17T09:12:40.071Z,38.90
2022-08-17T09:15:22.081Z,39.12
2022-08-17T09:19:02.861Z,38.87
2022-08-17T09:21:33.913Z,38.96
2022-08-17T09:24:12.858Z,39.74
2022-08-17T09:26:49.201Z,39.61
2022-08-17T09:29:18.287Z,39.20
2022-08-17T09:32:03.967Z,39.54
2022-08-17T09:34:51.701Z,39.54
2022-08-17T09:37:37.810Z,39.46
2022-08-17T09:40:15.851Z,39.25
2022-08-17T09:43:20.135Z,38.97
2022-08-17T09:45:58.578Z,39.02
2022-08-17T09:49:06.065Z,38.91
2022-08-17T09:51:36.514Z,39.59
2022-08-17T09:54:44.477Z,39.46
2022-08-17T09:57:46.459Z,39.98
2022-08-17T10:00:31.696Z,39.96
2022-08-17T10:03:50.893Z,40.21
2022-08-17T10:06:24.876Z,40.62
2022-08-17T10:09:14.400Z,40.07
2022-08-17T10:12:17.419Z,41.45
2022-08-17T10:15:07.727Z,42.39
2022-08-17T10:17:59.401Z,42.73
2022-08-17T10:20:34.563Z,42.19
2022-08-17T10:23:56.644Z,42.03
2022-08-17T10:26:28.216Z,43.27
2022-08-17T10:29:21.823Z,41.66
2022-08-17T10:32:04.123Z,41.64
2022-08-17T10:34:53.806Z,41.27
2022-08-17T10:38:09.540Z,41.33
2022-08-17T10:40:57.259Z,41.44
2022-08-17T10:43:35.927Z,41.28
2022-08-17T10:46:31.102Z,41.91
2022-08-17T10:49:18.167Z,41.61
2022-08-17T10:51:55.874Z,41.51
2022-08-17T10:55:01.588Z,41.81
2022-08-17T10:57:32.036Z,41.41
2022-08-17T11:00:15.864Z,41.72
2022-08-17T11:02:57.852Z,42.30
2022-08-17T11:06:04.377Z,42.61
2022-08-17T11:08:58.810Z,43.95
2022-08-17T11:11:45.429Z,43.48
2022-08-17T11:14:51.398Z,43.94
2022-08-17T11:18:07.492Z,44.45
2022-08-17T11:21:31.886Z,43.74
2022-08-17T11:24:16.647Z,45.04
2022-08-17T11:27:03.408Z,45.45
2022-08-17T11:30:02.925Z,45.42
2022-08-17T11:32:53.049Z,45.67
2022-08-17T11:35:30.389Z,45.83
2022-08-17T11:38:16.899Z,46.21
2022-08-17T11:41:13.212Z,44.58
2022-08-17T11:44:07.862Z,45.03
2022-08-17T11:47:15.833Z,45.55
2022-08-17T11:50:39.362Z,44.99
2022-08-17T11:53:27.443Z,45.79
2022-08-17T11:55:58.084Z,45.33
2022-08-17T11:58:52.473Z,43.66
2022-08-17T12:01:23.194Z,42.84
2022-08-17T12:03:57.043Z,43.46
2022-08-17T12:06:34.172Z,42.27
2022-08-17T12:09:16.797Z,41.91
2022-08-17T12:12:13.163Z,42.58
2022-08-17T12:17:42.975Z,43.41
2022-08-17T12:20:33.391Z,44.53
2022-08-17T12:23:20.141Z,44.67
2022-08-17T12:26:16.160Z,45.14
2022-08-17T12:28:57.440Z,45.28
2022-08-17T12:31:36.781Z,45.42
2022-08-17T12:34:05.593Z,45.15
2022-08-17T12:36:33.845Z,46.45
2022-08-17T12:39:13.798Z,46.48
2022-08-17T12:41:47.029Z,46.90
2022-08-17T12:44:19.750Z,47.09
2022-08-17T12:46:53.094Z,46.52
2022-08-17T12:49:37.009Z,46.65
2022-08-17T12:52:19.832Z,46.91
2022-08-17T12:54:59.651Z,46.84
2022-08-17T12:57:44.034Z,46.21
2022-08-17T13:00:25.291Z,45.98
2022-08-17T13:03:13.314Z,46.08
2022-08-17T13:05:52.509Z,45.41
2022-08-17T13:08:37.670Z,45.55
2022-08-17T13:11:19.067Z,44.76
2022-08-17T13:13:55.108Z,44.68
2022-08-17T13:16:30.522Z,43.74
2022-08-17T13:19:39.918Z,43.60
2022-08-17T13:22:12.890Z,42.99
2022-08-17T13:24:55.630Z,42.59
2022-08-17T13:27:26.813Z,41.52
2022-08-17T13:29:59.584Z,41.19
2022-08-17T13:32:46.563Z,40.63
2022-08-17T13:35:39.795Z,40.24
2022-08-17T13:38:12.449Z,39.67
2022-08-17T13:40:43.828Z,37.16
2022-08-17T13:43:12.287Z,36.45
2022-08-17T13:45:50.835Z,34.85
2022-08-17T13:48:24.962Z,34.96
2022-08-17T13:51:25.018Z,35.40
2022-08-17T13:54:00.925Z,35.12
2022-08-17T13:57:09.680Z,35.02
2022-08-17T13:59:58.226Z,33.55
2022-08-17T14:02:29.597Z,33.06
2022-08-17T14:05:06.193Z,32.92
2022-08-17T14:07:44.541Z,32.78
2022-08-17T14:10:18.149Z,33.07
2022-08-17T14:12:46.462Z,32.69
2022-08-17T14:15:23.459Z,32.55
2022-08-17T14:18:11.247Z,32.98
2022-08-17T14:20:40.049Z,32.79
2022-08-17T14:23:08.436Z,32.33
2022-08-17T14:25:36.372Z,32.58
2022-08-17T14:28:07.756Z,32.69
2022-08-17T14:30:35.785Z,33.57
2022-08-17T14:33:03.646Z,32.60
2022-08-17T14:35:31.889Z,31.92
2022-08-17T14:38:00.338Z,31.52
2022-08-17T14:40:29.297Z,31.42
2022-08-17T14:42:57.972Z,30.99
2022-08-17T14:45:32.325Z,30.68
2022-08-17T14:48:04.512Z,31.40
2022-08-17T14:50:35.188Z,31.44
2022-08-17T14:53:06.936Z,30.93
2022-08-17T14:55:36.898Z,31.75
2022-08-17T14:58:04.677Z,31.35
2022-08-17T15:00:33.580Z,31.46
2022-08-17T15:03:02.587Z,31.07
2022-08-17T15:05:34.930Z,31.04
2022-08-17T15:08:04.706Z,30.88
2022-08-17T15:10:33.823Z,30.71
2022-08-17T15:13:01.703Z,31.23
2022-08-17T15:15:30.569Z,31.55
2022-08-17T15:17:59.875Z,31.56
2022-08-17T15:20:30.002Z,32.20
2022-08-17T15:22:59.112Z,32.33
2022-08-17T15:25:31.669Z,31.72
2022-08-17T15:28:00.467Z,31.78
2022-08-17T15:30:29.963Z,31.55
2022-08-17T15:32:59.388Z,32.01
2022-08-17T15:35:33.813Z,31.75
2022-08-17T15:38:11.726Z,32.34
2022-08-17T15:40:46.198Z,33.42
2022-08-17T15:43:27.054Z,34.08
2022-08-17T15:46:12.256Z,34.93
2022-08-17T15:48:42.668Z,34.81
2022-08-17T15:51:20.793Z,35.18
2022-08-17T15:53:59.278Z,35.08
2022-08-17T15:56:32.699Z,35.12
2022-08-17T15:59:00.566Z,35.11
2022-08-17T16:02:29.866Z,35.73
2022-08-17T16:04:30.294Z,35.87
2022-08-17T16:07:00.122Z,36.09
2022-08-17T16:09:28.484Z,36.07
2022-08-17T16:11:56.650Z,35.96
2022-08-17T16:14:30.221Z,36.31
2022-08-17T16:17:04.997Z,36.47
2022-08-17T16:19:52.862Z,36.31
2022-08-17T16:22:36.679Z,36.15
2022-08-17T16:25:23.187Z,36.28
2022-08-17T16:28:11.820Z,36.22
2022-08-17T16:30:40.110Z,36.50
2022-08-17T16:33:09.605Z,36.56
2022-08-17T16:35:37.470Z,36.01
2022-08-17T16:38:05.420Z,36.21
2022-08-17T16:40:36.427Z,36.08
2022-08-17T16:43:12.125Z,35.85
2022-08-17T16:45:40.712Z,36.11
2022-08-17T16:48:10.142Z,36.41
2022-08-17T16:50:37.909Z,36.42
2022-08-17T16:53:18.834Z,36.66
2022-08-17T16:55:49.140Z,36.89
2022-08-17T16:58:16.941Z,36.86
2022-08-17T17:00:45.811Z,36.81
2022-08-17T17:03:19.162Z,37.06
2022-08-17T17:06:08.916Z,37.08
2022-08-17T17:08:55.409Z,37.20
2022-08-17T17:11:44.370Z,36.73
2022-08-17T17:14:43.208Z,36.29
2022-08-17T17:17:33.420Z,36.47
2022-08-17T17:20:15.617Z,37.26
2022-08-17T17:23:12.617Z,36.96
2022-08-17T17:26:24.649Z,37.33
2022-08-17T17:29:45.355Z,37.15
2022-08-17T17:32:46.146Z,36.88
2022-08-17T17:35:46.259Z,37.63
2022-08-17T17:38:37.676Z,37.63
2022-08-17T17:41:16.956Z,37.59
2022-08-17T17:43:44.897Z,38.12
2022-08-17T17:46:27.637Z,38.09
2022-08-17T17:48:58.423Z,38.06
2022-08-17T17:52:08.809Z,37.84
2022-08-17T17:54:57.324Z,37.79
2022-08-17T17:57:47.006Z,38.03
2022-08-17T18:00:24.391Z,38.38
2022-08-17T18:03:07.757Z,38.16
2022-08-17T18:05:53.586Z,38.16
2022-08-17T18:09:02.793Z,38.34
2022-08-17T18:12:11.769Z,38.37
2022-08-17T18:15:16.927Z,38.34
2022-08-17T18:18:37.738Z,38.78
2022-08-17T18:21:21.925Z,39.64
2022-08-17T18:23:59.124Z,40.07
2022-08-17T18:26:38.533Z,40.36
2022-08-17T18:29:23.375Z,40.32
2022-08-17T18:32:40.041Z,40.04
2022-08-17T18:35:10.410Z,39.81
2022-08-17T18:37:42.931Z,39.65
2022-08-17T18:40:16.732Z,40.07
2022-08-17T18:42:48.622Z,39.95
2022-08-17T18:45:35.848Z,40.08
2022-08-17T18:48:05.173Z,39.85
2022-08-17T18:50:43.904Z,40.27
2022-08-17T18:53:38.345Z,39.91
2022-08-17T18:56:30.613Z,40.46
2022-08-17T18:59:04.557Z,40.83
2022-08-17T19:02:38.641Z,40.72
2022-08-17T19:05:25.617Z,40.70
2022-08-17T19:07:55.269Z,41.39
2022-08-17T19:10:46.062Z,41.31
2022-08-17T19:13:31.096Z,41.57
2022-08-17T19:16:19.401Z,41.22
2022-08-17T19:18:59.625Z,40.62
2022-08-17T19:21:56.188Z,40.73
2022-08-17T19:24:27.612Z,40.74
2022-08-17T19:27:13.531Z,40.83
2022-08-17T19:29:52.552Z,40.38
2022-08-17T19:32:26.134Z,40.70
2022-08-17T19:34:55.020Z,40.85
2022-08-17T19:37:53.939Z,41.22
2022-08-17T19:40:53.455Z,41.55
2022-08-17T19:43:47.258Z,41.93
2022-08-17T19:46:50.450Z,42.29
2022-08-17T19:49:51.847Z,42.57
2022-08-17T19:53:02.048Z,42.78
2022-08-17T19:56:00.250Z,42.97
2022-08-17T19:58:48.641Z,43.33
2022-08-17T20:01:49.231Z,43.03
2022-08-17T20:04:32.664Z,43.24
2022-08-17T20:07:11.880Z,43.60
2022-08-17T20:09:47.359Z,43.91
2022-08-17T20:12:29.424Z,44.11
2022-08-17T20:15:25.221Z,43.88
2022-08-17T20:17:53.858Z,43.58
2022-08-17T20:20:33.531Z,43.44
2022-08-17T20:23:14.950Z,44.00
2022-08-17T20:26:19.401Z,43.83
2022-08-17T20:29:15.404Z,43.82
2022-08-17T20:32:05.585Z,43.69
2022-08-17T20:34:39.828Z,43.87
2022-08-17T20:37:30.060Z,43.78
2022-08-17T20:39:57.715Z,43.75
2022-08-17T20:42:26.348Z,43.75
2022-08-17T20:45:05.467Z,43.62
2022-08-17T20:48:18.537Z,43.10
2022-08-17T20:50:56.187Z,43.55
2022-08-17T20:53:54.900Z,43.23
2022-08-17T20:56:44.282Z,43.35
2022-08-17T20:59:21.114Z,43.06
2022-08-17T21:02:19.360Z,42.83
2022-08-17T21:04:50.267Z,43.17
2022-08-17T21:07:30.905Z,42.92
2022-08-17T21:10:36.760Z,42.89
2022-08-17T21:13:15.558Z,43.03
2022-08-17T21:16:01.914Z,43.12
2022-08-17T21:19:16.975Z,43.55
2022-08-17T21:22:31.181Z,43.31
2022-08-17T21:25:10.671Z,43.55
2022-08-17T21:27:58.613Z,43.64
2022-08-17T21:30:44.477Z,43.57
2022-08-17T21:33:27.350Z,43.24
2022-08-17T21:36:13.029Z,42.68
2022-08-17T21:38:57.027Z,42.56
2022-08-17T21:41:30.500Z,42.56
2022-08-17T21:44:21.637Z,42.85
2022-08-17T21:46:53.059Z,43.40
2022-08-17T21:49:28.745Z,42.90
2022-08-17T21:51:57.183Z,43.44
2022-08-17T21:54:39.989Z,43.42
2022-08-17T21:57:18.262Z,43.34
2022-08-17T21:59:50.476Z,44.07
2022-08-17T22:02:38.177Z,43.84
2022-08-17T22:05:13.857Z,43.79
2022-08-17T22:07:47.759Z,43.93
2022-08-17T22:10:43.221Z,43.66
2022-08-17T22:13:32.522Z,43.76
2022-08-17T22:16:28.519Z,43.06
2022-08-17T22:18:59.469Z,43.23
2022-08-17T22:21:27.330Z,43.32
2022-08-17T22:24:24.692Z,43.53
2022-08-17T22:27:11.935Z,42.97
2022-08-17T22:29:58.204Z,43.52
2022-08-17T22:32:46.317Z,43.60
2022-08-17T22:35:16.967Z,43.90
2022-08-17T22:37:45.502Z,44.68
2022-08-17T22:40:30.521Z,45.36
2022-08-17T22:43:00.619Z,45.57
2022-08-17T22:45:33.658Z,45.66
2022-08-17T22:48:02.238Z,46.13
2022-08-17T22:50:31.668Z,46.07
2022-08-17T22:53:34.307Z,46.22
2022-08-17T22:56:31.525Z,45.74
2022-08-17T22:59:18.981Z,46.47
2022-08-17T23:02:29.093Z,46.55
2022-08-17T23:05:13.032Z,46.50
2022-08-17T23:07:43.421Z,46.80
2022-08-17T23:10:13.070Z,47.09
2022-08-17T23:12:41.430Z,47.18
2022-08-17T23:15:14.759Z,47.46
2022-08-17T23:17:43.251Z,47.37
2022-08-17T23:20:17.814Z,47.87
2022-08-17T23:22:52.577Z,48.08
2022-08-17T23:25:30.461Z,47.84
2022-08-17T23:28:01.602Z,48.09
2022-08-17T23:30:32.648Z,48.04
2022-08-17T23:33:05.426Z,48.39
2022-08-17T23:35:40.489Z,48.33
2022-08-17T23:38:12.233Z,48.54
2022-08-17T23:40:40.984Z,48.50
2022-08-17T23:43:24.130Z,48.44
2022-08-17T23:45:55.306Z,48.36
2022-08-17T23:48:27.839Z,48.41
2022-08-17T23:51:08.558Z,48.39
2022-08-17T23:53:40.283Z,48.40
2022-08-17T23:56:11.131Z,48.51
2022-08-17T23:58:44.830Z,48.48
